createdAt,value
2022-10-10T00:00:47.533Z,10.2
2022-10-10T00:01:47.619Z,10.2
2022-10-10T00:02:47.784Z,10.2
2022-10-10T00:03:47.709Z,10.2
2022-10-10T00:04:47.762Z,10.2
2022-10-10T00:05:47.846Z,10.2
2022-10-10T00:06:47.865Z,10.2
2022-10-10T00:07:47.932Z,10.2
2022-10-10T00:08:48.042Z,10.1
2022-10-10T00:09:48.030Z,10.2
2022-10-10T00:10:48.106Z,10.1
2022-10-10T00:11:48.943Z,10.1
2022-10-10T00:12:49.217Z,10.2
2022-10-10T00:13:48.561Z,10.2
2022-10-10T00:14:48.577Z,10.3
2022-10-10T00:15:49.021Z,10.2
2022-10-10T00:16:48.839Z,10.2
2022-10-10T00:17:48.837Z,10.1
2022-10-10T00:18:48.821Z,10.2
2022-10-10T00:19:48.828Z,10.1
2022-10-10T00:20:48.827Z,10.2
2022-10-10T00:21:48.967Z,10.3
2022-10-10T00:22:49.299Z,10.1
2022-10-10T00:23:49.042Z,10.1
2022-10-10T00:24:49.087Z,10.1
2022-10-10T00:25:53.900Z,10.1
2022-10-10T00:26:49.137Z,9.9
2022-10-10T00:27:49.140Z,9.9
2022-10-10T00:28:49.186Z,9.8
2022-10-10T00:29:49.208Z,9.9
2022-10-10T00:30:49.272Z,9.9
2022-10-10T00:31:49.314Z,10.1
2022-10-10T00:32:49.646Z,10.2
2022-10-10T00:33:49.423Z,10
2022-10-10T00:34:49.473Z,10
2022-10-10T00:35:49.487Z,10
2022-10-10T00:36:49.596Z,10
2022-10-10T00:37:49.642Z,10
2022-10-10T00:38:49.727Z,10
2022-10-10T00:39:49.768Z,10
2022-10-10T00:40:49.800Z,10
2022-10-10T00:41:49.886Z,10
2022-10-10T00:42:50.176Z,10.1
2022-10-10T00:43:49.946Z,10.1
2022-10-10T00:44:50.038Z,10.1
2022-10-10T00:45:50.085Z,10
2022-10-10T00:46:50.495Z,10
2022-10-10T00:47:50.174Z,9.9
2022-10-10T00:48:50.199Z,9.9
2022-10-10T00:49:51.364Z,9.9
2022-10-10T00:50:50.300Z,9.9
2022-10-10T00:51:50.425Z,10
2022-10-10T00:52:50.793Z,9.9
2022-10-10T00:53:50.533Z,9.9
2022-10-10T00:54:50.569Z,10
2022-10-10T00:55:50.576Z,10
2022-10-10T00:56:50.667Z,10
2022-10-10T00:57:50.741Z,9.9
2022-10-10T00:58:50.768Z,9.9
2022-10-10T00:59:50.819Z,10
2022-10-10T01:00:50.941Z,10.1
2022-10-10T01:01:50.947Z,9.9
2022-10-10T01:02:51.227Z,9.9
2022-10-10T01:03:56.027Z,9.9
2022-10-10T01:04:51.056Z,9.8
2022-10-10T01:05:51.114Z,9.9
2022-10-10T01:06:51.159Z,9.9
2022-10-10T01:07:51.217Z,9.8
2022-10-10T01:08:51.273Z,9.7
2022-10-10T01:09:51.366Z,9.6
2022-10-10T01:10:51.415Z,9.6
2022-10-10T01:11:51.457Z,9.7
2022-10-10T01:12:51.860Z,9.7
2022-10-10T01:13:51.604Z,9.7
2022-10-10T01:14:51.663Z,9.8
2022-10-10T01:15:51.686Z,9.7
2022-10-10T01:16:51.776Z,9.7
2022-10-10T01:17:51.811Z,9.8
2022-10-10T01:18:51.859Z,9.8
2022-10-10T01:19:51.934Z,9.8
2022-10-10T01:20:51.953Z,9.8
2022-10-10T01:21:52.015Z,9.7
2022-10-10T01:22:52.492Z,9.7
2022-10-10T01:23:52.140Z,9.6
2022-10-10T01:24:52.203Z,9.7
2022-10-10T01:25:52.250Z,9.7
2022-10-10T01:26:52.301Z,9.7
2022-10-10T01:27:52.392Z,9.6
2022-10-10T01:28:52.413Z,9.7
2022-10-10T01:29:52.488Z,9.6
2022-10-10T01:30:52.526Z,9.5
2022-10-10T01:31:52.602Z,9.5
2022-10-10T01:32:53.108Z,9.5
2022-10-10T01:33:52.783Z,9.6
2022-10-10T01:34:52.856Z,9.6
2022-10-10T01:35:52.825Z,9.6
2022-10-10T01:36:52.874Z,9.6
2022-10-10T01:37:52.999Z,9.7
2022-10-10T01:38:53.087Z,9.5
2022-10-10T01:39:53.108Z,9.5
2022-10-10T01:40:53.401Z,9.5
2022-10-10T01:41:53.216Z,9.5
2022-10-10T01:42:53.497Z,9.6
2022-10-10T01:43:53.319Z,9.5
2022-10-10T01:44:53.611Z,9.4
2022-10-10T01:45:58.379Z,9.5
2022-10-10T01:46:53.467Z,9.5
2022-10-10T01:47:53.555Z,9.6
2022-10-10T01:48:53.602Z,9.5
2022-10-10T01:49:53.658Z,9.5
2022-10-10T01:50:53.707Z,9.6
2022-10-10T01:51:53.763Z,9.5
2022-10-10T01:52:53.940Z,9.5
2022-10-10T01:53:53.893Z,9.5
2022-10-10T01:54:53.860Z,9.5
2022-10-10T01:55:53.933Z,9.5
2022-10-10T01:56:53.992Z,9.5
2022-10-10T01:57:54.116Z,9.5
2022-10-10T01:58:54.131Z,9.4
2022-10-10T01:59:54.159Z,9.5
2022-10-10T02:00:54.249Z,9.4
2022-10-10T02:01:54.282Z,9.5
2022-10-10T02:02:54.565Z,9.5
2022-10-10T02:03:54.395Z,9.5
2022-10-10T02:04:54.523Z,9.5
2022-10-10T02:05:54.540Z,9.6
2022-10-10T02:06:54.588Z,9.5
2022-10-10T02:07:54.888Z,9.5
2022-10-10T02:08:54.726Z,9.5
2022-10-10T02:09:54.784Z,9.5
2022-10-10T02:10:54.856Z,9.4
2022-10-10T02:11:54.928Z,9.3
2022-10-10T02:12:54.980Z,9.4
2022-10-10T02:13:55.047Z,9.4
2022-10-10T02:14:55.086Z,9.4
2022-10-10T02:15:55.141Z,9.5
2022-10-10T02:16:55.195Z,9.5
2022-10-10T02:17:55.280Z,9.4
2022-10-10T02:18:55.328Z,9.5
2022-10-10T02:19:55.395Z,9.5
2022-10-10T02:20:55.477Z,9.5
2022-10-10T02:21:55.515Z,9.6
2022-10-10T02:22:55.589Z,9.6
2022-10-10T02:23:55.657Z,9.6
2022-10-10T02:24:55.669Z,9.4
2022-10-10T02:25:55.709Z,9.4
2022-10-10T02:26:55.793Z,9.4
2022-10-10T02:27:55.912Z,9.4
2022-10-10T02:28:55.929Z,9.4
2022-10-10T02:29:56.026Z,9.4
2022-10-10T02:30:56.057Z,9.4
2022-10-10T02:31:56.066Z,9.4
2022-10-10T02:32:56.142Z,9.4
2022-10-10T02:33:56.156Z,9.5
2022-10-10T02:34:56.235Z,9.5
2022-10-10T02:35:56.345Z,9.5
2022-10-10T02:36:56.378Z,9.5
2022-10-10T02:37:56.398Z,9.5
2022-10-10T02:38:56.563Z,9.4
2022-10-10T02:39:56.526Z,9.5
2022-10-10T02:40:56.568Z,9.3
2022-10-10T02:41:56.668Z,9.3
2022-10-10T02:42:56.656Z,9.4
2022-10-10T02:43:56.741Z,9.4
2022-10-10T02:44:56.772Z,9.4
2022-10-10T02:45:56.850Z,9.4
2022-10-10T02:46:56.962Z,9.4
2022-10-10T02:47:57.080Z,9.4
2022-10-10T02:48:57.141Z,9.3
2022-10-10T02:49:57.262Z,9.4
2022-10-10T02:50:57.350Z,9.3
2022-10-10T02:51:57.416Z,9.3
2022-10-10T02:52:57.507Z,9.3
2022-10-10T02:53:57.562Z,9.3
2022-10-10T02:54:57.565Z,9.2
2022-10-10T02:55:57.659Z,9.1
2022-10-10T02:56:57.680Z,9.2
2022-10-10T02:57:57.768Z,9.3
2022-10-10T02:58:57.782Z,9.2
2022-10-10T02:59:57.875Z,9.2
2022-10-10T03:00:57.917Z,9.2
2022-10-10T03:01:57.945Z,9.2
2022-10-10T03:02:58.011Z,9.2
2022-10-10T03:03:58.122Z,9.1
2022-10-10T03:04:59.195Z,9.2
2022-10-10T03:05:58.148Z,9.2
2022-10-10T03:06:58.243Z,9.2
2022-10-10T03:07:58.271Z,9.3
2022-10-10T03:08:58.335Z,9.3
2022-10-10T03:09:58.422Z,9.2
2022-10-10T03:10:58.420Z,9.1
2022-10-10T03:11:58.464Z,9.1
2022-10-10T03:12:58.546Z,9.1
2022-10-10T03:13:58.591Z,9.2
2022-10-10T03:14:58.671Z,9.2
2022-10-10T03:15:58.718Z,9.2
2022-10-10T03:16:58.780Z,9.1
2022-10-10T03:17:58.867Z,9.2
2022-10-10T03:18:58.892Z,9.1
2022-10-10T03:19:58.946Z,9.2
2022-10-10T03:20:59.047Z,9.2
2022-10-10T03:21:59.120Z,9.1
2022-10-10T03:22:59.211Z,9.1
2022-10-10T03:23:59.228Z,9.2
2022-10-10T03:24:59.298Z,9.2
2022-10-10T03:25:59.326Z,9.3
2022-10-10T03:26:59.365Z,9.3
2022-10-10T03:27:59.434Z,9.3
2022-10-10T03:28:59.462Z,9.2
2022-10-10T03:29:59.578Z,9.2
2022-10-10T03:30:59.586Z,9.2
2022-10-10T03:31:59.635Z,9.1
2022-10-10T03:32:59.699Z,9.2
2022-10-10T03:34:12.768Z,9.3
2022-10-10T03:34:59.825Z,9.4
2022-10-10T03:37:42.808Z,9.3
2022-10-10T03:38:00.073Z,9.3
2022-10-10T03:39:00.039Z,9.3
2022-10-10T03:40:00.172Z,9.2
2022-10-10T03:41:00.119Z,9.1
2022-10-10T03:42:00.180Z,9.1
2022-10-10T03:43:00.222Z,9.2
2022-10-10T03:44:00.310Z,9.1
2022-10-10T03:45:00.331Z,9.1
2022-10-10T03:46:00.403Z,9
2022-10-10T03:47:00.476Z,9.1
2022-10-10T03:48:00.492Z,9.2
2022-10-10T03:49:00.555Z,9.1
2022-10-10T03:50:00.599Z,9.1
2022-10-10T03:51:00.659Z,9.1
2022-10-10T03:52:00.703Z,9.2
2022-10-10T03:53:00.852Z,9.2
2022-10-10T03:54:00.843Z,9.2
2022-10-10T03:55:00.925Z,9.2
2022-10-10T03:56:00.934Z,9.2
2022-10-10T03:57:01.016Z,9.3
2022-10-10T03:58:01.038Z,9.3
2022-10-10T03:59:01.117Z,9.3
2022-10-10T04:00:01.134Z,9.3
2022-10-10T04:01:01.297Z,9.2
2022-10-10T04:02:01.256Z,9.2
2022-10-10T04:03:01.277Z,9.1
2022-10-10T04:04:01.303Z,9
2022-10-10T04:05:01.425Z,9.1
2022-10-10T04:06:01.410Z,9.2
2022-10-10T04:07:01.510Z,9.2
2022-10-10T04:08:01.580Z,9.2
2022-10-10T04:09:01.614Z,9.1
2022-10-10T04:10:01.700Z,9.1
2022-10-10T04:11:01.761Z,9.2
2022-10-10T04:12:01.852Z,9.3
2022-10-10T04:13:01.878Z,9.2
2022-10-10T04:14:01.958Z,9.2
2022-10-10T04:15:01.962Z,9.2
2022-10-10T04:16:02.015Z,9.3
2022-10-10T04:17:03.237Z,9.3
2022-10-10T04:18:02.223Z,9.3
2022-10-10T04:19:02.224Z,9.2
2022-10-10T04:20:02.286Z,9.2
2022-10-10T04:21:02.310Z,9.2
2022-10-10T04:22:02.367Z,9.3
2022-10-10T04:23:02.402Z,9.2
2022-10-10T04:24:02.470Z,9.1
2022-10-10T04:25:07.496Z,9.2
2022-10-10T04:26:02.562Z,9.1
2022-10-10T04:27:02.632Z,9.1
2022-10-10T04:28:02.689Z,9.1
2022-10-10T04:29:02.779Z,9.1
2022-10-10T04:31:45.610Z,9.1
2022-10-10T04:32:02.954Z,9.1
2022-10-10T04:33:03.050Z,9
2022-10-10T04:34:03.184Z,9
2022-10-10T04:35:03.209Z,9.1
2022-10-10T04:36:03.256Z,9.1
2022-10-10T04:37:03.360Z,9
2022-10-10T04:38:03.388Z,8.9
2022-10-10T04:39:03.429Z,9
2022-10-10T04:40:08.472Z,9
2022-10-10T04:41:08.517Z,9
2022-10-10T04:42:03.579Z,9
2022-10-10T04:43:03.673Z,9
2022-10-10T04:44:03.686Z,9
2022-10-10T04:45:03.833Z,9
2022-10-10T04:46:03.818Z,9
2022-10-10T04:47:03.894Z,9
2022-10-10T04:48:03.960Z,8.9
2022-10-10T04:49:04.008Z,8.9
2022-10-10T04:50:04.063Z,8.9
2022-10-10T04:51:04.130Z,8.9
2022-10-10T04:52:04.185Z,8.9
2022-10-10T04:53:04.251Z,8.9
2022-10-10T04:54:04.348Z,9
2022-10-10T04:55:04.341Z,9
2022-10-10T04:56:04.408Z,8.9
2022-10-10T04:57:04.460Z,8.9
2022-10-10T04:58:04.533Z,8.9
2022-10-10T04:59:04.588Z,8.9
2022-10-10T05:00:04.662Z,8.9
2022-10-10T05:01:05.814Z,8.9
2022-10-10T05:02:04.720Z,8.8
2022-10-10T05:03:09.824Z,8.8
2022-10-10T05:04:04.853Z,8.8
2022-10-10T05:05:04.923Z,8.6
2022-10-10T05:06:04.931Z,8.7
2022-10-10T05:07:05.037Z,8.7
2022-10-10T05:08:05.103Z,8.6
2022-10-10T05:09:05.186Z,8.6
2022-10-10T05:10:05.212Z,8.7
2022-10-10T05:11:05.230Z,8.8
2022-10-10T05:12:05.306Z,8.8
2022-10-10T05:13:05.373Z,8.8
2022-10-10T05:14:10.495Z,8.8
2022-10-10T05:15:05.472Z,8.8
2022-10-10T05:16:05.528Z,8.8
2022-10-10T05:17:05.639Z,8.7
2022-10-10T05:18:05.630Z,8.7
2022-10-10T05:19:05.697Z,8.8
2022-10-10T05:20:05.746Z,8.8
2022-10-10T05:21:05.785Z,8.7
2022-10-10T05:22:05.852Z,8.6
2022-10-10T05:23:05.941Z,8.6
2022-10-10T05:24:06.005Z,8.6
2022-10-10T05:25:06.041Z,8.6
2022-10-10T05:26:06.057Z,8.6
2022-10-10T05:27:06.143Z,8.6
2022-10-10T05:28:06.229Z,8.7
2022-10-10T05:29:06.278Z,8.6
2022-10-10T05:30:06.332Z,8.6
2022-10-10T05:31:06.379Z,8.7
2022-10-10T05:32:10.031Z,8.6
2022-10-10T05:33:06.474Z,8.5
2022-10-10T05:34:11.494Z,8.5
2022-10-10T05:35:06.632Z,8.5
2022-10-10T05:36:06.676Z,8.5
2022-10-10T05:37:06.701Z,8.5
2022-10-10T05:38:06.769Z,8.5
2022-10-10T05:39:06.799Z,8.5
2022-10-10T05:40:06.907Z,8.5
2022-10-10T05:41:06.977Z,8.6
2022-10-10T05:42:07.075Z,8.6
2022-10-10T05:43:07.179Z,8.6
2022-10-10T05:44:07.309Z,8.6
2022-10-10T05:45:07.356Z,8.6
2022-10-10T05:46:07.399Z,8.6
2022-10-10T05:47:07.485Z,8.5
2022-10-10T05:48:07.543Z,8.5
2022-10-10T05:49:07.772Z,8.4
2022-10-10T05:50:07.683Z,8.5
2022-10-10T05:51:07.703Z,8.5
2022-10-10T05:52:07.792Z,8.6
2022-10-10T05:53:07.831Z,8.5
2022-10-10T05:54:07.890Z,8.5
2022-10-10T05:55:07.938Z,8.4
2022-10-10T05:56:07.978Z,8.3
2022-10-10T05:57:09.815Z,8.3
2022-10-10T05:58:08.081Z,8.3
2022-10-10T05:59:08.152Z,8.3
2022-10-10T06:00:08.254Z,8.4
2022-10-10T06:01:08.269Z,8.5
2022-10-10T06:02:08.382Z,8.4
2022-10-10T06:03:08.363Z,8.5
2022-10-10T06:04:08.427Z,8.5
2022-10-10T06:05:08.553Z,8.4
2022-10-10T06:06:08.603Z,8.5
2022-10-10T06:07:08.648Z,8.6
2022-10-10T06:08:11.758Z,8.6
2022-10-10T06:09:08.764Z,8.6
2022-10-10T06:10:08.812Z,8.5
2022-10-10T06:11:08.841Z,8.5
2022-10-10T06:12:08.905Z,8.5
2022-10-10T06:13:09.021Z,8.5
2022-10-10T06:14:09.067Z,8.5
2022-10-10T06:15:09.144Z,8.6
2022-10-10T06:16:09.164Z,8.6
2022-10-10T06:17:09.257Z,8.5
2022-10-10T06:18:09.322Z,8.5
2022-10-10T06:19:14.028Z,8.5
2022-10-10T06:20:09.435Z,8.5
2022-10-10T06:21:09.495Z,8.5
2022-10-10T06:22:09.538Z,8.6
2022-10-10T06:23:09.603Z,8.7
2022-10-10T06:24:09.636Z,8.8
2022-10-10T06:25:24.168Z,8.9
2022-10-10T06:26:09.763Z,8.9
2022-10-10T06:27:09.778Z,8.9
2022-10-10T06:28:09.931Z,8.9
2022-10-10T06:29:09.940Z,8.9
2022-10-10T06:30:09.990Z,9
2022-10-10T06:31:10.086Z,9.2
2022-10-10T06:32:10.062Z,9.2
2022-10-10T06:33:10.133Z,9.3
2022-10-10T06:34:10.211Z,9.4
2022-10-10T06:35:10.249Z,9.4
2022-10-10T06:36:10.274Z,9.3
2022-10-10T06:37:10.437Z,9.4
2022-10-10T06:38:10.472Z,9.5
2022-10-10T06:39:10.521Z,9.6
2022-10-10T06:40:10.574Z,9.5
2022-10-10T06:41:10.625Z,9.5
2022-10-10T06:42:10.651Z,9.6
2022-10-10T06:43:10.718Z,9.7
2022-10-10T06:44:10.887Z,9.7
2022-10-10T06:45:10.928Z,9.7
2022-10-10T06:46:10.993Z,9.7
2022-10-10T06:47:11.040Z,9.7
2022-10-10T06:48:11.040Z,9.7
2022-10-10T06:49:11.073Z,9.7
2022-10-10T06:50:11.148Z,9.7
2022-10-10T06:51:11.178Z,9.8
2022-10-10T06:52:11.237Z,10
2022-10-10T06:53:11.297Z,10.1
2022-10-10T06:54:11.360Z,9.9
2022-10-10T06:55:11.388Z,10
2022-10-10T06:56:11.458Z,10.1
2022-10-10T06:57:11.499Z,10.2
2022-10-10T06:58:11.539Z,10.2
2022-10-10T06:59:11.647Z,10.1
2022-10-10T07:00:11.772Z,10.2
2022-10-10T07:01:12.782Z,10
2022-10-10T07:02:11.773Z,10.1
2022-10-10T07:03:11.822Z,10.2
2022-10-10T07:04:11.882Z,10.3
2022-10-10T07:05:11.987Z,10.4
2022-10-10T07:06:12.023Z,10.4
2022-10-10T07:07:12.080Z,10.4
2022-10-10T07:08:12.356Z,10.4
2022-10-10T07:09:12.173Z,10.4
2022-10-10T07:10:12.209Z,10.3
2022-10-10T07:11:12.262Z,10.2
2022-10-10T07:12:12.296Z,10.3
2022-10-10T07:13:12.377Z,10.4
2022-10-10T07:14:13.704Z,10.4
2022-10-10T07:15:12.509Z,10.4
2022-10-10T07:16:12.580Z,10.4
2022-10-10T07:17:12.632Z,10.4
2022-10-10T07:18:12.636Z,10.4
2022-10-10T07:19:12.684Z,10.5
2022-10-10T07:20:12.804Z,10.6
2022-10-10T07:21:12.810Z,10.6
2022-10-10T07:22:12.896Z,10.6
2022-10-10T07:23:12.966Z,10.7
2022-10-10T07:24:12.991Z,10.8
2022-10-10T07:25:13.482Z,10.8
2022-10-10T07:26:13.083Z,10.9
2022-10-10T07:27:13.167Z,11
2022-10-10T07:28:13.277Z,10.9
2022-10-10T07:29:13.256Z,10.9
2022-10-10T07:30:13.293Z,10.9
2022-10-10T07:31:13.327Z,10.9
2022-10-10T07:32:13.426Z,11
2022-10-10T07:33:13.420Z,11.1
2022-10-10T07:34:13.505Z,11.1
2022-10-10T07:35:13.561Z,11.1
2022-10-10T07:36:14.165Z,11
2022-10-10T07:37:13.636Z,11
2022-10-10T07:38:13.973Z,11.1
2022-10-10T07:39:16.979Z,11.2
2022-10-10T07:40:13.885Z,11.2
2022-10-10T07:41:13.909Z,11.1
2022-10-10T07:42:13.972Z,11.3
2022-10-10T07:43:14.022Z,11.3
2022-10-10T07:44:14.069Z,11.2
2022-10-10T07:45:14.172Z,11.2
2022-10-10T07:46:14.187Z,11.2
2022-10-10T07:47:14.256Z,11.1
2022-10-10T07:48:14.308Z,11.1
2022-10-10T07:49:14.365Z,11.2
2022-10-10T07:50:14.439Z,11.3
2022-10-10T07:51:14.490Z,11.3
2022-10-10T07:52:14.555Z,11.3
2022-10-10T07:53:14.595Z,11.5
2022-10-10T07:54:14.728Z,11.4
2022-10-10T07:55:14.779Z,11.5
2022-10-10T07:56:14.811Z,11.6
2022-10-10T07:57:14.884Z,11.7
2022-10-10T07:58:14.915Z,11.7
2022-10-10T07:59:14.961Z,11.7
2022-10-10T08:00:15.149Z,11.6
2022-10-10T08:01:15.212Z,11.6
2022-10-10T08:02:15.338Z,11.7
2022-10-10T08:03:15.416Z,11.8
2022-10-10T08:04:15.416Z,11.7
2022-10-10T08:05:15.470Z,11.7
2022-10-10T08:06:15.530Z,11.9
2022-10-10T08:07:15.625Z,12
2022-10-10T08:08:15.636Z,12
2022-10-10T08:09:15.741Z,12
2022-10-10T08:10:15.772Z,12
2022-10-10T08:11:15.838Z,12.1
2022-10-10T08:12:15.922Z,12.2
2022-10-10T08:13:15.951Z,12.3
2022-10-10T08:14:16.002Z,12.3
2022-10-10T08:15:16.025Z,12.3
2022-10-10T08:16:16.111Z,12.2
2022-10-10T08:17:16.106Z,12.1
2022-10-10T08:18:21.167Z,12.2
2022-10-10T08:19:16.358Z,12.3
2022-10-10T08:20:16.305Z,12.3
2022-10-10T08:21:16.594Z,12.4
2022-10-10T08:22:16.456Z,12.4
2022-10-10T08:23:23.142Z,12.4
2022-10-10T08:24:16.572Z,12.3
2022-10-10T08:25:21.620Z,12.5
2022-10-10T08:26:16.651Z,12.6
2022-10-10T08:27:16.694Z,12.6
2022-10-10T08:28:16.815Z,12.7
2022-10-10T08:29:16.801Z,12.8
2022-10-10T08:30:16.865Z,12.8
2022-10-10T08:31:16.948Z,12.9
2022-10-10T08:32:17.018Z,12.9
2022-10-10T08:33:17.047Z,12.9
2022-10-10T08:34:17.077Z,13
2022-10-10T08:35:17.159Z,12.9
2022-10-10T08:36:17.241Z,12.9
2022-10-10T08:37:17.298Z,13
2022-10-10T08:38:17.350Z,12.9
2022-10-10T08:39:17.446Z,12.8
2022-10-10T08:40:17.473Z,12.9
2022-10-10T08:41:17.575Z,13
2022-10-10T08:42:17.622Z,13
2022-10-10T08:43:17.697Z,13.1
2022-10-10T08:44:17.725Z,13.2
2022-10-10T08:45:17.905Z,13.2
2022-10-10T08:46:17.816Z,13.3
2022-10-10T08:47:17.856Z,13.5
2022-10-10T08:48:35.088Z,13.6
2022-10-10T08:49:17.962Z,13.6
2022-10-10T08:51:31.692Z,13.6
2022-10-10T08:52:18.107Z,13.8
2022-10-10T08:53:18.211Z,13.8
2022-10-10T08:54:18.282Z,13.8
2022-10-10T08:55:18.333Z,13.8
2022-10-10T08:56:18.394Z,13.7
2022-10-10T08:57:18.451Z,13.7
2022-10-10T08:58:18.779Z,13.7
2022-10-10T08:59:18.471Z,13.8
2022-10-10T09:00:18.553Z,13.9
2022-10-10T09:01:18.769Z,14
2022-10-10T09:02:21.513Z,14
2022-10-10T09:03:18.878Z,14.1
2022-10-10T09:04:18.841Z,14.2
2022-10-10T09:05:18.883Z,14.3
2022-10-10T09:06:18.952Z,14.3
2022-10-10T09:07:18.971Z,14.4
2022-10-10T09:08:21.239Z,14.4
2022-10-10T09:09:20.201Z,14.4
2022-10-10T09:10:19.213Z,14.3
2022-10-10T09:11:19.159Z,14.2
2022-10-10T09:12:19.207Z,14.1
2022-10-10T09:13:19.284Z,14.2
2022-10-10T09:14:19.344Z,14.4
2022-10-10T09:15:19.430Z,14.4
2022-10-10T09:16:20.508Z,14.5
2022-10-10T09:17:20.060Z,14.5
2022-10-10T09:18:35.179Z,14.5
2022-10-10T09:19:19.601Z,14.5
2022-10-10T09:20:19.740Z,14.6
2022-10-10T09:21:19.734Z,14.7
2022-10-10T09:22:19.871Z,14.8
2022-10-10T09:23:19.948Z,14.8
2022-10-10T09:24:19.942Z,14.8
2022-10-10T09:25:19.989Z,14.9
2022-10-10T09:26:20.136Z,15
2022-10-10T09:27:20.087Z,15.1
2022-10-10T09:28:20.186Z,15.1
2022-10-10T09:29:20.207Z,14.8
2022-10-10T09:30:20.273Z,14.9
2022-10-10T09:31:20.359Z,14.9
2022-10-10T09:32:20.699Z,15
2022-10-10T09:33:20.857Z,15.1
2022-10-10T09:34:21.833Z,15.3
2022-10-10T09:35:20.549Z,15.5
2022-10-10T09:36:20.673Z,15.7
2022-10-10T09:37:35.438Z,15.7
2022-10-10T09:38:20.734Z,15.7
2022-10-10T09:39:25.775Z,15.8
2022-10-10T09:40:20.898Z,15.8
2022-10-10T09:41:20.939Z,16
2022-10-10T09:42:21.179Z,16.2
2022-10-10T09:43:21.021Z,16.2
2022-10-10T09:44:21.092Z,16.2
2022-10-10T09:45:21.124Z,16.4
2022-10-10T09:46:26.172Z,16.7
2022-10-10T09:47:21.266Z,16.8
2022-10-10T09:48:21.412Z,16.8
2022-10-10T09:49:21.375Z,17
2022-10-10T09:50:21.437Z,16.9
2022-10-10T09:56:35.615Z,17.4
2022-10-10T09:57:35.182Z,17.7
2022-10-10T09:58:37.518Z,17.8
2022-10-10T09:59:35.215Z,17.8
2022-10-10T10:00:35.277Z,17.8
2022-10-10T10:01:35.427Z,17.8
2022-10-10T10:02:35.414Z,17.3
2022-10-10T10:03:35.872Z,17.5
2022-10-10T10:04:36.214Z,17.6
2022-10-10T10:05:36.291Z,17.9
2022-10-10T10:06:35.646Z,18.2
2022-10-10T10:07:35.678Z,18.2
2022-10-10T10:08:40.708Z,18
2022-10-10T10:09:40.724Z,17.9
2022-10-10T10:10:35.871Z,17.8
2022-10-10T10:11:35.967Z,17.9
2022-10-10T10:12:35.938Z,17.9
2022-10-10T10:13:36.021Z,18
2022-10-10T10:14:36.046Z,18.3
2022-10-10T10:15:36.124Z,18.3
2022-10-10T10:16:36.183Z,18.4
2022-10-10T10:17:36.238Z,18.6
2022-10-10T10:18:36.321Z,18.7
2022-10-10T10:19:36.387Z,18.9
2022-10-10T10:20:36.397Z,19
2022-10-10T10:21:39.783Z,19.1
2022-10-10T10:22:36.486Z,19.1
2022-10-10T10:23:36.514Z,19.1
2022-10-10T10:24:36.558Z,19.1
2022-10-10T10:25:36.654Z,19.2
2022-10-10T10:26:50.430Z,18.8
2022-10-10T10:29:19.212Z,18.6
2022-10-10T10:30:09.264Z,18.7
2022-10-10T10:31:09.283Z,18.9
2022-10-10T10:32:09.352Z,19
2022-10-10T10:33:09.388Z,18.8
2022-10-10T10:34:09.478Z,19.2
2022-10-10T10:35:09.570Z,19.6
2022-10-10T10:36:09.633Z,19.8
2022-10-10T10:37:14.005Z,19.9
2022-10-10T10:38:09.727Z,19.6
2022-10-10T10:39:09.810Z,19.4
2022-10-10T10:40:09.822Z,19.2
2022-10-10T10:41:09.905Z,19.2
2022-10-10T10:42:10.019Z,19.3
2022-10-10T10:43:12.236Z,19.4
2022-10-10T10:44:10.102Z,19.3
2022-10-10T10:45:10.141Z,19.5
2022-10-10T10:46:10.168Z,19.8
2022-10-10T10:47:10.242Z,19.8
2022-10-10T10:48:10.232Z,19.8
2022-10-10T10:49:15.309Z,19.7
2022-10-10T10:50:10.368Z,19.7
2022-10-10T10:51:10.464Z,19.6
2022-10-10T10:52:10.470Z,19.8
2022-10-10T10:53:10.457Z,19.6
2022-10-10T10:54:10.558Z,19.7
2022-10-10T10:55:10.575Z,19.7
2022-10-10T10:56:10.637Z,19.5
2022-10-10T10:57:11.065Z,19.2
2022-10-10T10:58:49.041Z,19.1
2022-10-10T11:00:21.478Z,19.7
2022-10-10T11:01:19.999Z,20
2022-10-10T11:02:11.095Z,20
2022-10-10T11:03:34.847Z,19.8
2022-10-10T11:05:16.789Z,19.5
2022-10-10T11:05:21.481Z,19.4
2022-10-10T11:06:16.765Z,19.4
2022-10-10T11:07:18.779Z,19.4
2022-10-10T11:08:11.274Z,19.1
2022-10-10T11:09:25.595Z,19.3
2022-10-10T11:10:11.396Z,19.3
2022-10-10T11:11:16.457Z,19.1
2022-10-10T11:12:11.548Z,19.1
2022-10-10T11:13:11.648Z,19.4
2022-10-10T11:14:11.655Z,19.5
2022-10-10T11:15:11.735Z,19.3
2022-10-10T11:16:20.297Z,19.3
2022-10-10T11:17:11.867Z,19.6
2022-10-10T11:18:11.855Z,19.8
2022-10-10T11:19:11.904Z,19.7
2022-10-10T11:20:11.950Z,19.7
2022-10-10T11:21:12.085Z,19.6
2022-10-10T11:22:12.421Z,19.4
2022-10-10T11:23:12.147Z,19.6
2022-10-10T11:24:12.254Z,19.7
2022-10-10T11:25:12.875Z,19.5
2022-10-10T11:26:12.340Z,19.4
2022-10-10T11:27:12.684Z,19.2
2022-10-10T11:28:14.036Z,19
2022-10-10T11:29:20.120Z,19.1
2022-10-10T11:31:50.333Z,18.9
2022-10-10T11:34:22.547Z,18.9
2022-10-10T11:36:50.362Z,19.1
2022-10-10T11:37:50.978Z,19.2
2022-10-10T11:38:55.582Z,19.1
2022-10-10T11:39:50.754Z,19.1
2022-10-10T11:40:50.614Z,19.1
2022-10-10T11:41:50.732Z,19.1
2022-10-10T11:42:51.350Z,19
2022-10-10T11:43:51.079Z,18.8
2022-10-10T11:44:56.155Z,18.9
2022-10-10T11:45:54.668Z,18.6
2022-10-10T11:46:51.095Z,18.5
2022-10-10T11:47:51.117Z,18.6
2022-10-10T11:48:51.186Z,18.5
2022-10-10T11:49:51.319Z,18.6
2022-10-10T11:50:56.262Z,18.6
2022-10-10T11:51:51.645Z,18.6
2022-10-10T11:52:57.475Z,18.7
2022-10-10T11:53:52.474Z,18.8
2022-10-10T11:54:56.484Z,18.9
2022-10-10T11:55:51.921Z,18.9
2022-10-10T11:56:56.656Z,18.9
2022-10-10T11:57:51.664Z,19.1
2022-10-10T11:58:51.651Z,19.3
2022-10-10T11:59:51.744Z,19.4
2022-10-10T12:00:51.773Z,19.7
2022-10-10T12:01:51.823Z,19.8
2022-10-10T12:02:51.832Z,19.7
2022-10-10T12:03:51.836Z,19.9
2022-10-10T12:04:51.903Z,19.6
2022-10-10T12:05:51.946Z,19.7
2022-10-10T12:06:51.994Z,19.9
2022-10-10T12:07:52.038Z,20
2022-10-10T12:08:52.085Z,20
2022-10-10T12:09:52.115Z,19.8
2022-10-10T12:10:52.164Z,19.6
2022-10-10T12:11:52.231Z,19.8
2022-10-10T12:12:52.441Z,20
2022-10-10T12:13:52.310Z,20.1
2022-10-10T12:14:52.364Z,20.1
2022-10-10T12:15:52.427Z,20.2
2022-10-10T12:16:52.501Z,20.3
2022-10-10T12:17:52.571Z,20.2
2022-10-10T12:18:52.634Z,20
2022-10-10T12:19:52.652Z,20
2022-10-10T12:20:52.724Z,19.8
2022-10-10T12:21:52.827Z,19.7
2022-10-10T12:22:57.835Z,19.5
2022-10-10T12:23:52.923Z,19.3
2022-10-10T12:24:52.965Z,19.2
2022-10-10T12:25:53.022Z,19.2
2022-10-10T12:26:53.072Z,19.2
2022-10-10T12:27:53.166Z,19.2
2022-10-10T12:28:53.270Z,19.2
2022-10-10T12:29:53.284Z,19.2
2022-10-10T12:30:57.167Z,19.2
2022-10-10T12:31:53.352Z,19.2
2022-10-10T12:32:53.422Z,19.1
2022-10-10T12:33:53.754Z,19.1
2022-10-10T12:34:53.550Z,19.1
2022-10-10T12:35:53.685Z,19.1
2022-10-10T12:36:53.925Z,19.1
2022-10-10T12:37:53.699Z,19.1
2022-10-10T12:38:56.490Z,19.1
2022-10-10T12:39:53.868Z,19.2
2022-10-10T12:40:53.943Z,19.2
2022-10-10T12:41:53.953Z,19.3
2022-10-10T12:42:54.066Z,19.3
2022-10-10T12:43:54.039Z,19.4
2022-10-10T12:44:54.117Z,19.4
2022-10-10T12:45:54.216Z,19.5
2022-10-10T12:46:54.212Z,19.5
2022-10-10T12:48:05.771Z,19.4
2022-10-10T12:48:54.317Z,19.2
2022-10-10T12:49:59.467Z,19.2
2022-10-10T12:50:54.478Z,19.2
2022-10-10T12:51:54.600Z,19.2
2022-10-10T12:52:54.793Z,19.2
2022-10-10T12:53:54.617Z,19.2
2022-10-10T12:54:54.673Z,19.2
2022-10-10T12:55:55.007Z,19
2022-10-10T12:56:54.814Z,19
2022-10-10T12:57:54.913Z,18.9
2022-10-10T12:58:54.901Z,18.8
2022-10-10T12:59:57.621Z,18.8
2022-10-10T13:00:55.021Z,18.8
2022-10-10T13:01:55.115Z,18.7
2022-10-10T13:02:55.149Z,18.7
2022-10-10T13:03:55.184Z,18.6
2022-10-10T13:04:55.250Z,18.6
2022-10-10T13:06:09.798Z,18.7
2022-10-10T13:07:52.940Z,18.7
2022-10-10T13:08:10.892Z,18.8
2022-10-10T13:08:55.418Z,18.8
2022-10-10T13:09:55.597Z,18.8
2022-10-10T13:10:55.472Z,18.8
2022-10-10T13:11:55.566Z,18.7
2022-10-10T13:12:55.605Z,18.7
2022-10-10T13:13:56.663Z,18.6
2022-10-10T13:14:55.638Z,18.6
2022-10-10T13:15:55.708Z,18.6
2022-10-10T13:16:55.742Z,18.6
2022-10-10T13:17:55.779Z,18.7
2022-10-10T13:18:55.813Z,18.6
2022-10-10T13:19:57.597Z,18.6
2022-10-10T13:20:56.180Z,18.5
2022-10-10T13:21:55.942Z,18.5
2022-10-10T13:22:56.164Z,18.4
2022-10-10T13:24:56.015Z,18.4
2022-10-10T13:25:57.664Z,18.4
2022-10-10T13:26:56.129Z,18.4
2022-10-10T13:27:56.236Z,18.5
2022-10-10T13:28:56.624Z,18.6
2022-10-10T13:30:01.257Z,18.6
2022-10-10T13:30:56.296Z,18.5
2022-10-10T13:31:57.294Z,18.5
2022-10-10T13:32:56.381Z,18.6
2022-10-10T13:33:56.399Z,18.5
2022-10-10T13:34:56.470Z,18.6
2022-10-10T13:35:56.487Z,18.7
2022-10-10T13:36:56.597Z,18.7
2022-10-10T13:37:58.525Z,18.8
2022-10-10T13:38:56.631Z,18.8
2022-10-10T13:39:56.687Z,18.8
2022-10-10T13:40:56.739Z,18.9
2022-10-10T13:41:56.789Z,18.9
2022-10-10T13:42:56.836Z,18.8
2022-10-10T13:43:56.922Z,18.7
2022-10-10T13:44:56.957Z,18.5
2022-10-10T13:45:56.973Z,18.5
2022-10-10T13:46:57.993Z,18.4
2022-10-10T13:47:57.250Z,18.5
2022-10-10T13:48:57.115Z,18.4
2022-10-10T13:49:57.832Z,18.4
2022-10-10T13:50:57.220Z,18.4
2022-10-10T13:51:57.296Z,18.5
2022-10-10T13:52:57.353Z,18.5